sensor_id;sensor_type;location;lat;lon;timestamp;temperature;humidity
13446;DHT22;6795;51.232;3.764;2023-05-07T00:03:35;14.90;99.90
13446;DHT22;6795;51.232;3.764;2023-05-07T00:06:34;14.90;99.90
13446;DHT22;6795;51.232;3.764;2023-05-07T00:09:52;14.90;99.90
13446;DHT22;6795;51.232;3.764;2023-05-07T00:12:58;14.80;99.90
13446;DHT22;6795;51.232;3.764;2023-05-07T00:16:46;14.80;99.90
13446;DHT22;6795;51.232;3.764;2023-05-07T00:19:34;14.80;99.90
13446;DHT22;6795;51.232;3.764;2023-05-07T00:22:53;14.80;99.90
13446;DHT22;6795;51.232;3.764;2023-05-07T00:29:24;14.80;99.90
13446;DHT22;6795;51.232;3.764;2023-05-07T00:32:42;14.80;99.90
13446;DHT22;6795;51.232;3.764;2023-05-07T00:36:24;14.70;99.90
13446;DHT22;6795;51.232;3.764;2023-05-07T00:49:53;14.70;99.90
13446;DHT22;6795;51.232;3.764;2023-05-07T00:53:39;14.70;99.90
13446;DHT22;6795;51.232;3.764;2023-05-07T01:00:01;14.60;99.90
13446;DHT22;6795;51.232;3.764;2023-05-07T01:03:44;14.60;99.90
13446;DHT22;6795;51.232;3.764;2023-05-07T01:07:15;14.60;99.90
13446;DHT22;6795;51.232;3.764;2023-05-07T01:10:48;14.50;99.90
13446;DHT22;6795;51.232;3.764;2023-05-07T01:13:48;14.60;99.90
13446;DHT22;6795;51.232;3.764;2023-05-07T01:17:14;14.50;99.90
13446;DHT22;6795;51.232;3.764;2023-05-07T01:20:46;14.40;99.90
13446;DHT22;6795;51.232;3.764;2023-05-07T01:28:34;14.20;99.90
13446;DHT22;6795;51.232;3.764;2023-05-07T01:32:00;14.20;99.90
13446;DHT22;6795;51.232;3.764;2023-05-07T01:35:28;14.20;99.90
13446;DHT22;6795;51.232;3.764;2023-05-07T01:42:06;14.20;99.90
13446;DHT22;6795;51.232;3.764;2023-05-07T01:49:38;13.90;99.90
13446;DHT22;6795;51.232;3.764;2023-05-07T01:52:53;13.80;99.90
13446;DHT22;6795;51.232;3.764;2023-05-07T01:56:08;13.70;99.90
13446;DHT22;6795;51.232;3.764;2023-05-07T01:59:17;13.90;99.90
13446;DHT22;6795;51.232;3.764;2023-05-07T02:02:47;13.90;99.90
13446;DHT22;6795;51.232;3.764;2023-05-07T02:05:53;13.80;99.90
13446;DHT22;6795;51.232;3.764;2023-05-07T02:09:14;13.70;99.90
13446;DHT22;6795;51.232;3.764;2023-05-07T02:14:05;13.70;99.90
13446;DHT22;6795;51.232;3.764;2023-05-07T02:15:52;13.70;99.90
13446;DHT22;6795;51.232;3.764;2023-05-07T02:23:41;13.70;99.90
13446;DHT22;6795;51.232;3.764;2023-05-07T02:26:51;13.80;99.90
13446;DHT22;6795;51.232;3.764;2023-05-07T02:30:13;13.80;99.90
13446;DHT22;6795;51.232;3.764;2023-05-07T02:33:18;13.90;99.90
13446;DHT22;6795;51.232;3.764;2023-05-07T02:36:44;13.90;99.90
13446;DHT22;6795;51.232;3.764;2023-05-07T02:40:34;13.90;99.90
13446;DHT22;6795;51.232;3.764;2023-05-07T02:43:47;13.80;99.90
13446;DHT22;6795;51.232;3.764;2023-05-07T02:47:01;13.80;99.90
13446;DHT22;6795;51.232;3.764;2023-05-07T02:50:24;13.80;99.90
13446;DHT22;6795;51.232;3.764;2023-05-07T02:53:47;13.70;99.90
13446;DHT22;6795;51.232;3.764;2023-05-07T02:57:32;13.60;99.90
13446;DHT22;6795;51.232;3.764;2023-05-07T03:01:00;13.70;99.90
13446;DHT22;6795;51.232;3.764;2023-05-07T03:07:46;13.70;99.90
13446;DHT22;6795;51.232;3.764;2023-05-07T03:10:54;13.70;99.90
13446;DHT22;6795;51.232;3.764;2023-05-07T03:14:24;13.70;99.90
13446;DHT22;6795;51.232;3.764;2023-05-07T03:17:41;13.80;99.90
13446;DHT22;6795;51.232;3.764;2023-05-07T03:21:01;13.80;99.90
13446;DHT22;6795;51.232;3.764;2023-05-07T03:24:18;13.90;99.90
13446;DHT22;6795;51.232;3.764;2023-05-07T03:27:34;13.90;99.90
13446;DHT22;6795;51.232;3.764;2023-05-07T03:38:14;13.70;99.90
13446;DHT22;6795;51.232;3.764;2023-05-07T03:41:40;13.60;99.90
13446;DHT22;6795;51.232;3.764;2023-05-07T03:44:50;13.60;99.90
13446;DHT22;6795;51.232;3.764;2023-05-07T03:48:14;13.60;99.90
13446;DHT22;6795;51.232;3.764;2023-05-07T03:51:20;13.50;99.90
13446;DHT22;6795;51.232;3.764;2023-05-07T03:54:36;13.60;99.90
13446;DHT22;6795;51.232;3.764;2023-05-07T03:57:46;13.60;99.90
13446;DHT22;6795;51.232;3.764;2023-05-07T04:01:08;13.80;99.90
13446;DHT22;6795;51.232;3.764;2023-05-07T04:04:09;13.80;99.90
13446;DHT22;6795;51.232;3.764;2023-05-07T04:07:28;13.90;99.90
13446;DHT22;6795;51.232;3.764;2023-05-07T04:10:23;13.90;99.90
13446;DHT22;6795;51.232;3.764;2023-05-07T04:13:49;13.90;99.90
13446;DHT22;6795;51.232;3.764;2023-05-07T04:17:46;13.90;99.90
13446;DHT22;6795;51.232;3.764;2023-05-07T04:20:45;14.00;99.90
13446;DHT22;6795;51.232;3.764;2023-05-07T04:23:55;14.00;99.90
13446;DHT22;6795;51.232;3.764;2023-05-07T04:27:18;14.00;99.90
13446;DHT22;6795;51.232;3.764;2023-05-07T04:30:34;14.00;99.90
13446;DHT22;6795;51.232;3.764;2023-05-07T04:33:50;14.00;99.90
13446;DHT22;6795;51.232;3.764;2023-05-07T04:37:11;14.00;99.90
13446;DHT22;6795;51.232;3.764;2023-05-07T04:40:24;14.00;99.90
13446;DHT22;6795;51.232;3.764;2023-05-07T04:43:24;14.10;99.90
13446;DHT22;6795;51.232;3.764;2023-05-07T04:46:42;14.10;99.90
13446;DHT22;6795;51.232;3.764;2023-05-07T04:50:26;14.10;99.90
13446;DHT22;6795;51.232;3.764;2023-05-07T04:53:35;14.20;99.90
13446;DHT22;6795;51.232;3.764;2023-05-07T04:56:49;14.30;99.90
13446;DHT22;6795;51.232;3.764;2023-05-07T05:04:14;14.30;99.90
13446;DHT22;6795;51.232;3.764;2023-05-07T05:08:03;14.30;99.90
13446;DHT22;6795;51.232;3.764;2023-05-07T05:11:01;14.30;99.90
13446;DHT22;6795;51.232;3.764;2023-05-07T05:14:16;14.30;99.90
13446;DHT22;6795;51.232;3.764;2023-05-07T05:17:25;14.40;99.90
13446;DHT22;6795;51.232;3.764;2023-05-07T05:25:07;14.50;99.90
13446;DHT22;6795;51.232;3.764;2023-05-07T05:28:02;14.50;99.90
13446;DHT22;6795;51.232;3.764;2023-05-07T05:31:13;14.60;99.90
13446;DHT22;6795;51.232;3.764;2023-05-07T05:34:25;14.60;99.90
13446;DHT22;6795;51.232;3.764;2023-05-07T05:38:06;14.70;99.90
13446;DHT22;6795;51.232;3.764;2023-05-07T05:41:30;14.90;99.90
13446;DHT22;6795;51.232;3.764;2023-05-07T05:44:45;14.90;99.90
13446;DHT22;6795;51.232;3.764;2023-05-07T05:47:55;14.90;99.90
13446;DHT22;6795;51.232;3.764;2023-05-07T05:51:13;14.90;99.90
13446;DHT22;6795;51.232;3.764;2023-05-07T05:54:15;15.00;99.90
13446;DHT22;6795;51.232;3.764;2023-05-07T05:57:54;15.10;99.90
13446;DHT22;6795;51.232;3.764;2023-05-07T06:01:18;15.20;99.90
13446;DHT22;6795;51.232;3.764;2023-05-07T06:07:47;15.40;99.90
13446;DHT22;6795;51.232;3.764;2023-05-07T06:11:04;15.40;99.90
13446;DHT22;6795;51.232;3.764;2023-05-07T06:18:19;15.60;99.90
13446;DHT22;6795;51.232;3.764;2023-05-07T06:21:40;15.70;99.90
13446;DHT22;6795;51.232;3.764;2023-05-07T06:25:08;15.80;99.90
13446;DHT22;6795;51.232;3.764;2023-05-07T06:28:37;15.90;99.90
13446;DHT22;6795;51.232;3.764;2023-05-07T06:31:46;16.10;99.90
13446;DHT22;6795;51.232;3.764;2023-05-07T06:35:06;16.20;99.90
13446;DHT22;6795;51.232;3.764;2023-05-07T06:38:36;16.30;99.90
13446;DHT22;6795;51.232;3.764;2023-05-07T06:42:23;16.40;99.90
13446;DHT22;6795;51.232;3.764;2023-05-07T06:45:49;16.50;99.90
13446;DHT22;6795;51.232;3.764;2023-05-07T06:48:51;16.60;99.90
13446;DHT22;6795;51.232;3.764;2023-05-07T06:52:31;16.60;99.90
13446;DHT22;6795;51.232;3.764;2023-05-07T06:56:37;16.60;99.90
13446;DHT22;6795;51.232;3.764;2023-05-07T07:00:09;16.70;99.90
13446;DHT22;6795;51.232;3.764;2023-05-07T07:03:19;16.60;99.90
13446;DHT22;6795;51.232;3.764;2023-05-07T07:06:41;16.70;99.90
13446;DHT22;6795;51.232;3.764;2023-05-07T07:10:22;16.90;99.90
13446;DHT22;6795;51.232;3.764;2023-05-07T07:16:06;16.90;99.90
13446;DHT22;6795;51.232;3.764;2023-05-07T07:18:01;16.90;99.90
13446;DHT22;6795;51.232;3.764;2023-05-07T07:21:12;16.80;99.90
13446;DHT22;6795;51.232;3.764;2023-05-07T07:24:08;16.80;99.90
13446;DHT22;6795;51.232;3.764;2023-05-07T07:27:21;16.90;99.90
13446;DHT22;6795;51.232;3.764;2023-05-07T07:30:27;16.80;99.90
13446;DHT22;6795;51.232;3.764;2023-05-07T07:33:30;16.90;99.90
13446;DHT22;6795;51.232;3.764;2023-05-07T07:37:27;16.90;99.90
13446;DHT22;6795;51.232;3.764;2023-05-07T07:40:39;16.90;99.90
13446;DHT22;6795;51.232;3.764;2023-05-07T07:47:39;17.00;99.90
13446;DHT22;6795;51.232;3.764;2023-05-07T07:50:51;17.10;99.90
13446;DHT22;6795;51.232;3.764;2023-05-07T07:54:30;17.10;99.90
13446;DHT22;6795;51.232;3.764;2023-05-07T07:58:18;17.10;99.90
13446;DHT22;6795;51.232;3.764;2023-05-07T08:01:21;17.10;99.90
13446;DHT22;6795;51.232;3.764;2023-05-07T08:04:26;17.10;99.90
13446;DHT22;6795;51.232;3.764;2023-05-07T08:07:43;17.20;99.90
13446;DHT22;6795;51.232;3.764;2023-05-07T08:10:55;17.20;99.90
13446;DHT22;6795;51.232;3.764;2023-05-07T08:14:18;17.20;99.90
13446;DHT22;6795;51.232;3.764;2023-05-07T08:17:31;17.10;99.90
13446;DHT22;6795;51.232;3.764;2023-05-07T08:20:54;17.10;99.90
13446;DHT22;6795;51.232;3.764;2023-05-07T08:24:07;17.00;99.90
13446;DHT22;6795;51.232;3.764;2023-05-07T08:27:10;17.00;99.90
13446;DHT22;6795;51.232;3.764;2023-05-07T08:30:38;17.00;99.90
13446;DHT22;6795;51.232;3.764;2023-05-07T08:34:12;16.90;99.90
13446;DHT22;6795;51.232;3.764;2023-05-07T08:41:54;16.80;99.90
13446;DHT22;6795;51.232;3.764;2023-05-07T08:45:09;16.80;99.90
13446;DHT22;6795;51.232;3.764;2023-05-07T08:48:22;16.80;99.90
13446;DHT22;6795;51.232;3.764;2023-05-07T08:51:35;16.80;99.90
13446;DHT22;6795;51.232;3.764;2023-05-07T08:54:49;16.90;99.90
13446;DHT22;6795;51.232;3.764;2023-05-07T08:58:21;17.00;99.90
13446;DHT22;6795;51.232;3.764;2023-05-07T09:04:52;17.30;99.90
13446;DHT22;6795;51.232;3.764;2023-05-07T09:08:01;17.70;99.90
13446;DHT22;6795;51.232;3.764;2023-05-07T09:11:19;17.80;99.90
13446;DHT22;6795;51.232;3.764;2023-05-07T09:14:40;18.00;99.90
13446;DHT22;6795;51.232;3.764;2023-05-07T09:18:16;18.20;99.90
13446;DHT22;6795;51.232;3.764;2023-05-07T09:22:04;18.40;99.90
13446;DHT22;6795;51.232;3.764;2023-05-07T09:32:19;18.60;99.90
13446;DHT22;6795;51.232;3.764;2023-05-07T09:35:43;18.90;99.90
13446;DHT22;6795;51.232;3.764;2023-05-07T09:39:12;19.00;99.90
13446;DHT22;6795;51.232;3.764;2023-05-07T09:42:31;19.00;99.90
13446;DHT22;6795;51.232;3.764;2023-05-07T09:46:56;19.10;99.90
13446;DHT22;6795;51.232;3.764;2023-05-07T09:50:29;19.10;99.90
13446;DHT22;6795;51.232;3.764;2023-05-07T09:53:45;19.00;99.90
13446;DHT22;6795;51.232;3.764;2023-05-07T09:57:33;19.10;99.90
13446;DHT22;6795;51.232;3.764;2023-05-07T10:00:38;19.20;99.90
13446;DHT22;6795;51.232;3.764;2023-05-07T10:03:41;19.30;99.90
13446;DHT22;6795;51.232;3.764;2023-05-07T10:07:05;19.40;99.90
13446;DHT22;6795;51.232;3.764;2023-05-07T10:10:14;19.40;99.90
13446;DHT22;6795;51.232;3.764;2023-05-07T10:14:07;19.50;99.90
13446;DHT22;6795;51.232;3.764;2023-05-07T10:17:48;19.60;99.90
13446;DHT22;6795;51.232;3.764;2023-05-07T10:20:37;19.70;99.90
13446;DHT22;6795;51.232;3.764;2023-05-07T10:27:32;19.80;99.90
13446;DHT22;6795;51.232;3.764;2023-05-07T10:33:55;20.30;99.90
13446;DHT22;6795;51.232;3.764;2023-05-07T10:37:24;20.70;99.90
13446;DHT22;6795;51.232;3.764;2023-05-07T10:40:48;20.60;99.90
13446;DHT22;6795;51.232;3.764;2023-05-07T10:44:24;20.30;99.90
13446;DHT22;6795;51.232;3.764;2023-05-07T10:47:46;20.30;99.90
13446;DHT22;6795;51.232;3.764;2023-05-07T10:51:38;20.30;99.90
13446;DHT22;6795;51.232;3.764;2023-05-07T10:54:48;20.60;99.90
13446;DHT22;6795;51.232;3.764;2023-05-07T10:58:41;20.60;99.90
13446;DHT22;6795;51.232;3.764;2023-05-07T11:02:21;20.40;99.90
13446;DHT22;6795;51.232;3.764;2023-05-07T11:12:08;20.70;99.90
13446;DHT22;6795;51.232;3.764;2023-05-07T11:15:47;21.70;99.90
13446;DHT22;6795;51.232;3.764;2023-05-07T11:23:13;22.10;99.90
13446;DHT22;6795;51.232;3.764;2023-05-07T11:26:21;22.20;99.90
13446;DHT22;6795;51.232;3.764;2023-05-07T11:29:31;22.30;99.90
13446;DHT22;6795;51.232;3.764;2023-05-07T11:33:03;22.30;99.90
13446;DHT22;6795;51.232;3.764;2023-05-07T11:36:25;22.00;99.90
13446;DHT22;6795;51.232;3.764;2023-05-07T11:39:52;22.10;99.90
13446;DHT22;6795;51.232;3.764;2023-05-07T11:43:02;21.80;99.90
13446;DHT22;6795;51.232;3.764;2023-05-07T11:46:22;21.60;99.90
13446;DHT22;6795;51.232;3.764;2023-05-07T11:50:06;21.70;99.90
13446;DHT22;6795;51.232;3.764;2023-05-07T11:53:35;21.70;99.90
13446;DHT22;6795;51.232;3.764;2023-05-07T11:56:43;21.60;99.90
13446;DHT22;6795;51.232;3.764;2023-05-07T12:00:06;21.70;99.90
13446;DHT22;6795;51.232;3.764;2023-05-07T12:03:28;21.70;99.90
13446;DHT22;6795;51.232;3.764;2023-05-07T12:13:37;21.20;99.90
13446;DHT22;6795;51.232;3.764;2023-05-07T12:17:35;21.20;99.90
13446;DHT22;6795;51.232;3.764;2023-05-07T12:20:19;21.10;99.90
13446;DHT22;6795;51.232;3.764;2023-05-07T12:23:35;21.10;99.90
13446;DHT22;6795;51.232;3.764;2023-05-07T12:27:11;21.10;99.90
13446;DHT22;6795;51.232;3.764;2023-05-07T12:30:40;21.20;99.90
13446;DHT22;6795;51.232;3.764;2023-05-07T12:33:35;21.30;99.90
13446;DHT22;6795;51.232;3.764;2023-05-07T12:37:07;21.30;99.90
13446;DHT22;6795;51.232;3.764;2023-05-07T12:40:44;21.40;99.90
13446;DHT22;6795;51.232;3.764;2023-05-07T12:48:10;21.70;99.90
13446;DHT22;6795;51.232;3.764;2023-05-07T12:51:57;21.90;99.90
13446;DHT22;6795;51.232;3.764;2023-05-07T12:54:51;21.60;99.90
13446;DHT22;6795;51.232;3.764;2023-05-07T12:58:03;21.30;99.90
13446;DHT22;6795;51.232;3.764;2023-05-07T13:01:17;21.30;99.90
13446;DHT22;6795;51.232;3.764;2023-05-07T13:05:02;21.40;99.90
13446;DHT22;6795;51.232;3.764;2023-05-07T13:08:06;21.20;99.90
13446;DHT22;6795;51.232;3.764;2023-05-07T13:11:37;20.80;99.90
13446;DHT22;6795;51.232;3.764;2023-05-07T13:14:44;20.80;99.90
13446;DHT22;6795;51.232;3.764;2023-05-07T13:18:04;20.50;99.90
13446;DHT22;6795;51.232;3.764;2023-05-07T13:21:33;20.30;99.90
13446;DHT22;6795;51.232;3.764;2023-05-07T13:24:50;20.40;99.90
13446;DHT22;6795;51.232;3.764;2023-05-07T13:28:22;20.50;99.90
13446;DHT22;6795;51.232;3.764;2023-05-07T13:31:46;20.40;99.90
13446;DHT22;6795;51.232;3.764;2023-05-07T13:35:02;20.50;99.90
13446;DHT22;6795;51.232;3.764;2023-05-07T13:38:30;20.40;99.90
13446;DHT22;6795;51.232;3.764;2023-05-07T13:41:54;20.40;99.90
13446;DHT22;6795;51.232;3.764;2023-05-07T13:48:55;19.80;99.90
13446;DHT22;6795;51.232;3.764;2023-05-07T13:51:48;20.30;99.90
13446;DHT22;6795;51.232;3.764;2023-05-07T13:55:28;20.70;99.90
13446;DHT22;6795;51.232;3.764;2023-05-07T13:58:30;20.80;99.90
13446;DHT22;6795;51.232;3.764;2023-05-07T14:01:43;20.70;99.90
13446;DHT22;6795;51.232;3.764;2023-05-07T14:04:47;20.70;99.90
13446;DHT22;6795;51.232;3.764;2023-05-07T14:07:59;20.90;99.90
13446;DHT22;6795;51.232;3.764;2023-05-07T14:11:42;20.90;99.90
13446;DHT22;6795;51.232;3.764;2023-05-07T14:15:19;20.40;99.90
13446;DHT22;6795;51.232;3.764;2023-05-07T14:19:15;20.60;99.90
13446;DHT22;6795;51.232;3.764;2023-05-07T14:22:36;20.20;99.90
13446;DHT22;6795;51.232;3.764;2023-05-07T14:26:17;20.30;99.90
13446;DHT22;6795;51.232;3.764;2023-05-07T14:33:29;20.50;99.90
13446;DHT22;6795;51.232;3.764;2023-05-07T14:36:36;20.40;99.90
13446;DHT22;6795;51.232;3.764;2023-05-07T14:40:12;20.20;99.90
13446;DHT22;6795;51.232;3.764;2023-05-07T14:46:45;19.50;99.90
13446;DHT22;6795;51.232;3.764;2023-05-07T14:54:07;19.30;99.90
13446;DHT22;6795;51.232;3.764;2023-05-07T14:57:23;19.00;99.90
13446;DHT22;6795;51.232;3.764;2023-05-07T15:00:50;19.00;99.90
13446;DHT22;6795;51.232;3.764;2023-05-07T15:03:58;18.80;99.90
13446;DHT22;6795;51.232;3.764;2023-05-07T15:07:56;18.50;99.90
13446;DHT22;6795;51.232;3.764;2023-05-07T15:11:19;18.10;99.90
13446;DHT22;6795;51.232;3.764;2023-05-07T15:17:32;18.00;99.90
13446;DHT22;6795;51.232;3.764;2023-05-07T15:24:14;17.70;99.90
13446;DHT22;6795;51.232;3.764;2023-05-07T15:27:20;17.70;99.90
13446;DHT22;6795;51.232;3.764;2023-05-07T15:30:54;17.60;99.90
13446;DHT22;6795;51.232;3.764;2023-05-07T15:40:32;17.70;99.90
13446;DHT22;6795;51.232;3.764;2023-05-07T15:44:01;17.90;99.90
13446;DHT22;6795;51.232;3.764;2023-05-07T18:41:08;17.90;99.90
13446;DHT22;6795;51.232;3.764;2023-05-07T18:46:04;17.00;99.90
13446;DHT22;6795;51.232;3.764;2023-05-07T18:49:09;16.70;99.90
13446;DHT22;6795;51.232;3.764;2023-05-07T18:56:08;16.50;99.90
13446;DHT22;6795;51.232;3.764;2023-05-07T18:59:03;16.20;99.90
13446;DHT22;6795;51.232;3.764;2023-05-07T19:02:11;16.00;99.90
13446;DHT22;6795;51.232;3.764;2023-05-07T19:05:27;15.80;99.90
13446;DHT22;6795;51.232;3.764;2023-05-07T19:08:21;15.60;99.90
13446;DHT22;6795;51.232;3.764;2023-05-07T19:32:07;15.20;99.90
13446;DHT22;6795;51.232;3.764;2023-05-07T19:38:16;14.20;99.90
13446;DHT22;6795;51.232;3.764;2023-05-07T19:44:54;13.90;99.90
13446;DHT22;6795;51.232;3.764;2023-05-07T19:48:17;13.50;99.90
13446;DHT22;6795;51.232;3.764;2023-05-07T19:54:26;13.50;99.90
13446;DHT22;6795;51.232;3.764;2023-05-07T19:58:02;13.30;99.90
13446;DHT22;6795;51.232;3.764;2023-05-07T20:07:23;13.10;99.90
13446;DHT22;6795;51.232;3.764;2023-05-07T20:10:31;13.00;99.90
13446;DHT22;6795;51.232;3.764;2023-05-07T20:14:09;12.90;99.90
13446;DHT22;6795;51.232;3.764;2023-05-07T20:17:18;12.70;99.90
13446;DHT22;6795;51.232;3.764;2023-05-07T20:21:06;12.60;99.90
13446;DHT22;6795;51.232;3.764;2023-05-07T20:24:24;12.70;99.90
13446;DHT22;6795;51.232;3.764;2023-05-07T20:27:44;12.70;99.90
13446;DHT22;6795;51.232;3.764;2023-05-07T20:31:10;12.90;99.90
13446;DHT22;6795;51.232;3.764;2023-05-07T20:34:25;13.00;99.90
13446;DHT22;6795;51.232;3.764;2023-05-07T20:45:39;13.20;99.90
13446;DHT22;6795;51.232;3.764;2023-05-07T20:48:47;13.30;99.90
13446;DHT22;6795;51.232;3.764;2023-05-07T20:51:55;13.10;99.90
13446;DHT22;6795;51.232;3.764;2023-05-07T20:55:25;12.90;99.90
13446;DHT22;6795;51.232;3.764;2023-05-07T21:00:36;12.70;99.90
13446;DHT22;6795;51.232;3.764;2023-05-07T21:13:15;12.70;99.90
13446;DHT22;6795;51.232;3.764;2023-05-07T21:16:19;12.30;99.90
13446;DHT22;6795;51.232;3.764;2023-05-07T21:26:05;12.70;99.90
13446;DHT22;6795;51.232;3.764;2023-05-07T21:29:17;12.50;99.90
13446;DHT22;6795;51.232;3.764;2023-05-07T21:32:32;12.60;99.90
13446;DHT22;6795;51.232;3.764;2023-05-07T21:35:52;12.70;99.90
13446;DHT22;6795;51.232;3.764;2023-05-07T21:39:03;12.60;99.90
13446;DHT22;6795;51.232;3.764;2023-05-07T21:42:12;12.50;99.90
13446;DHT22;6795;51.232;3.764;2023-05-07T21:46:25;12.60;99.90
13446;DHT22;6795;51.232;3.764;2023-05-07T21:49:40;12.70;99.90
13446;DHT22;6795;51.232;3.764;2023-05-07T21:52:51;12.70;99.90
13446;DHT22;6795;51.232;3.764;2023-05-07T21:56:04;12.60;99.90
13446;DHT22;6795;51.232;3.764;2023-05-07T21:59:17;12.50;99.90
13446;DHT22;6795;51.232;3.764;2023-05-07T22:02:43;12.60;99.90
13446;DHT22;6795;51.232;3.764;2023-05-07T22:06:04;12.50;99.90
13446;DHT22;6795;51.232;3.764;2023-05-07T22:09:08;12.40;99.90
13446;DHT22;6795;51.232;3.764;2023-05-07T22:12:23;12.60;99.90
13446;DHT22;6795;51.232;3.764;2023-05-07T22:15:49;12.60;99.90
13446;DHT22;6795;51.232;3.764;2023-05-07T22:19:31;12.60;99.90
13446;DHT22;6795;51.232;3.764;2023-05-07T22:22:34;12.60;99.90
13446;DHT22;6795;51.232;3.764;2023-05-07T22:26:11;12.70;99.90
13446;DHT22;6795;51.232;3.764;2023-05-07T22:29:17;12.60;99.90
13446;DHT22;6795;51.232;3.764;2023-05-07T22:32:29;12.70;99.90
13446;DHT22;6795;51.232;3.764;2023-05-07T22:36:06;12.70;99.90
13446;DHT22;6795;51.232;3.764;2023-05-07T22:39:28;12.70;99.90
13446;DHT22;6795;51.232;3.764;2023-05-07T22:42:40;12.60;99.90
13446;DHT22;6795;51.232;3.764;2023-05-07T22:46:07;12.70;99.90
13446;DHT22;6795;51.232;3.764;2023-05-07T22:49:09;12.70;99.90
13446;DHT22;6795;51.232;3.764;2023-05-07T22:56:51;12.60;99.90
13446;DHT22;6795;51.232;3.764;2023-05-07T22:59:58;12.60;99.90
13446;DHT22;6795;51.232;3.764;2023-05-07T23:03:31;12.50;99.90
13446;DHT22;6795;51.232;3.764;2023-05-07T23:06:47;12.40;99.90
13446;DHT22;6795;51.232;3.764;2023-05-07T23:14:01;12.40;99.90
13446;DHT22;6795;51.232;3.764;2023-05-07T23:17:08;12.50;99.90
13446;DHT22;6795;51.232;3.764;2023-05-07T23:20:39;12.50;99.90
13446;DHT22;6795;51.232;3.764;2023-05-07T23:23:49;12.40;99.90
13446;DHT22;6795;51.232;3.764;2023-05-07T23:26:54;12.40;99.90
13446;DHT22;6795;51.232;3.764;2023-05-07T23:30:29;12.40;99.90
13446;DHT22;6795;51.232;3.764;2023-05-07T23:34:11;12.30;99.90
13446;DHT22;6795;51.232;3.764;2023-05-07T23:37:17;12.20;99.90
13446;DHT22;6795;51.232;3.764;2023-05-07T23:40:31;12.20;99.90
13446;DHT22;6795;51.232;3.764;2023-05-07T23:43:31;12.20;99.90
13446;DHT22;6795;51.232;3.764;2023-05-07T23:46:53;12.10;99.90
13446;DHT22;6795;51.232;3.764;2023-05-07T23:50:08;11.90;99.90
13446;DHT22;6795;51.232;3.764;2023-05-07T23:53:24;11.90;99.90
13446;DHT22;6795;51.232;3.764;2023-05-07T23:56:31;11.90;99.90
13446;DHT22;6795;51.232;3.764;2023-05-07T23:59:48;11.90;99.90
